Weather at Troyes-Barberey Airport

Public forecast

Using degrees Celsius for public forecast. Weather courtesy of forecast.io.

Current aviation weather report (METAR) for Troyes-Barberey Airport

2024/07/15 18:00 (retrieved 22 minutes ago)

LFQB 151800Z AUTO 21011KT 170V250 8000 -RA VCTS FEW015/// SCT042/// BKN056/// //////CB 20/18 Q1009

Closest aviation forecast (TAF) to Troyes-Barberey Airport

Closest forecast is Châlons-Vatry Airport, 28.1 nm (52.1 km) NNE.

2024/07/15 18:21 (retrieved 33 seconds ago)

TAF LFOK 151700Z 1518/1618 24009KT CAVOK TEMPO 1518/1522 4000 SHRA BKN040TCU PROB40 TEMPO 1518/1520 VRB18G35KT 1500 TSRAGS SCT014 BKN035CB TEMPO 1607/1618 25015G28KT PROB40 TEMPO 1608/1615 4000 -SHRA SCT030TCU